Terminal Aerodrome Forecast
Issued by NWS

Home | Current Version | Previous Version | Text Only | Print | Product List | Glossary Off
Versions: 1 2 3 4 5 6 7 8 9 10

000
FTUS43 KTOP 241100
TAFMHK
TAF
KMHK 241122Z 2412/2512 32012KT P6SM OVC015
     FM242100 28008KT P6SM BKN025
     FM250000 21004KT P6SM SKC=

USA.gov is the U.S. government's official web portal to all federal, state and local government web resources and services.